sensor_id;sensor_type;location;lat;lon;timestamp;P1;durP1;ratioP1;P2;durP2;ratioP2
27895;SDS011;15241;48.374;10.876;2022-09-09T00:01:50;2.90;;;1.47;;
27895;SDS011;15241;48.374;10.876;2022-09-09T00:11:53;3.15;;;1.67;;
27895;SDS011;15241;48.374;10.876;2022-09-09T00:16:56;3.60;;;1.60;;
27895;SDS011;15241;48.374;10.876;2022-09-09T00:21:59;3.77;;;1.55;;
27895;SDS011;15241;48.374;10.876;2022-09-09T00:27:04;2.33;;;1.72;;
27895;SDS011;15241;48.374;10.876;2022-09-09T00:32:09;4.27;;;2.20;;
27895;SDS011;15241;48.374;10.876;2022-09-09T00:37:10;5.70;;;1.72;;
27895;SDS011;15241;48.374;10.876;2022-09-09T00:42:13;4.83;;;1.90;;
27895;SDS011;15241;48.374;10.876;2022-09-09T00:47:18;3.47;;;2.00;;
27895;SDS011;15241;48.374;10.876;2022-09-09T00:52:36;3.52;;;1.55;;
27895;SDS011;15241;48.374;10.876;2022-09-09T00:57:44;3.33;;;2.02;;
27895;SDS011;15241;48.374;10.876;2022-09-09T01:02:48;3.42;;;1.70;;
27895;SDS011;15241;48.374;10.876;2022-09-09T01:07:51;3.08;;;2.00;;
27895;SDS011;15241;48.374;10.876;2022-09-09T01:12:50;4.25;;;1.98;;
27895;SDS011;15241;48.374;10.876;2022-09-09T01:17:53;3.65;;;2.20;;
27895;SDS011;15241;48.374;10.876;2022-09-09T01:23:01;3.20;;;2.27;;
27895;SDS011;15241;48.374;10.876;2022-09-09T01:28:16;4.35;;;2.30;;
27895;SDS011;15241;48.374;10.876;2022-09-09T01:33:17;6.20;;;2.05;;
27895;SDS011;15241;48.374;10.876;2022-09-09T01:38:17;4.05;;;2.20;;
27895;SDS011;15241;48.374;10.876;2022-09-09T01:43:17;1.98;;;1.77;;
27895;SDS011;15241;48.374;10.876;2022-09-09T01:48:18;4.20;;;2.08;;
27895;SDS011;15241;48.374;10.876;2022-09-09T01:53:18;3.00;;;1.92;;
27895;SDS011;15241;48.374;10.876;2022-09-09T01:58:22;2.37;;;1.75;;
27895;SDS011;15241;48.374;10.876;2022-09-09T02:03:25;6.92;;;2.30;;
27895;SDS011;15241;48.374;10.876;2022-09-09T02:08:29;2.90;;;2.05;;
27895;SDS011;15241;48.374;10.876;2022-09-09T02:13:28;4.55;;;2.22;;
27895;SDS011;15241;48.374;10.876;2022-09-09T02:18:30;5.12;;;2.35;;
27895;SDS011;15241;48.374;10.876;2022-09-09T02:23:31;6.87;;;2.40;;
27895;SDS011;15241;48.374;10.876;2022-09-09T02:28:31;6.65;;;2.08;;
27895;SDS011;15241;48.374;10.876;2022-09-09T02:33:33;3.22;;;2.10;;
27895;SDS011;15241;48.374;10.876;2022-09-09T02:38:37;5.12;;;2.12;;
27895;SDS011;15241;48.374;10.876;2022-09-09T02:43:37;3.02;;;2.20;;
27895;SDS011;15241;48.374;10.876;2022-09-09T02:48:38;3.85;;;2.25;;
27895;SDS011;15241;48.374;10.876;2022-09-09T02:53:39;2.12;;;1.90;;
27895;SDS011;15241;48.374;10.876;2022-09-09T02:58:43;4.00;;;2.10;;
27895;SDS011;15241;48.374;10.876;2022-09-09T03:03:42;2.83;;;1.95;;
27895;SDS011;15241;48.374;10.876;2022-09-09T03:08:41;4.10;;;2.05;;
27895;SDS011;15241;48.374;10.876;2022-09-09T03:13:40;2.30;;;2.10;;
27895;SDS011;15241;48.374;10.876;2022-09-09T03:18:39;3.17;;;2.15;;
27895;SDS011;15241;48.374;10.876;2022-09-09T03:23:38;3.00;;;1.98;;
27895;SDS011;15241;48.374;10.876;2022-09-09T03:28:36;3.05;;;2.25;;
27895;SDS011;15241;48.374;10.876;2022-09-09T03:33:35;4.42;;;2.17;;
27895;SDS011;15241;48.374;10.876;2022-09-09T03:38:34;4.33;;;2.10;;
27895;SDS011;15241;48.374;10.876;2022-09-09T03:43:33;5.42;;;2.47;;
27895;SDS011;15241;48.374;10.876;2022-09-09T03:48:32;3.33;;;2.12;;
27895;SDS011;15241;48.374;10.876;2022-09-09T03:53:31;3.42;;;2.37;;
27895;SDS011;15241;48.374;10.876;2022-09-09T03:58:30;4.42;;;1.92;;
27895;SDS011;15241;48.374;10.876;2022-09-09T04:03:30;3.00;;;2.00;;
27895;SDS011;15241;48.374;10.876;2022-09-09T04:08:29;2.92;;;2.17;;
27895;SDS011;15241;48.374;10.876;2022-09-09T04:13:28;3.40;;;1.98;;
27895;SDS011;15241;48.374;10.876;2022-09-09T04:18:27;3.70;;;2.00;;
27895;SDS011;15241;48.374;10.876;2022-09-09T04:23:26;4.55;;;2.27;;
27895;SDS011;15241;48.374;10.876;2022-09-09T04:28:26;4.05;;;1.82;;
27895;SDS011;15241;48.374;10.876;2022-09-09T04:33:26;5.22;;;2.37;;
27895;SDS011;15241;48.374;10.876;2022-09-09T04:38:25;6.37;;;2.35;;
27895;SDS011;15241;48.374;10.876;2022-09-09T04:43:24;4.67;;;2.10;;
27895;SDS011;15241;48.374;10.876;2022-09-09T04:48:24;4.95;;;2.55;;
27895;SDS011;15241;48.374;10.876;2022-09-09T04:53:23;2.87;;;2.25;;
27895;SDS011;15241;48.374;10.876;2022-09-09T04:58:23;4.58;;;2.37;;
27895;SDS011;15241;48.374;10.876;2022-09-09T05:03:22;4.33;;;2.60;;
27895;SDS011;15241;48.374;10.876;2022-09-09T05:08:21;3.55;;;2.20;;
27895;SDS011;15241;48.374;10.876;2022-09-09T05:13:20;2.85;;;1.77;;
27895;SDS011;15241;48.374;10.876;2022-09-09T05:18:19;5.97;;;2.25;;
27895;SDS011;15241;48.374;10.876;2022-09-09T05:23:21;4.15;;;1.82;;
27895;SDS011;15241;48.374;10.876;2022-09-09T05:28:19;3.77;;;2.45;;
27895;SDS011;15241;48.374;10.876;2022-09-09T05:33:19;7.28;;;3.67;;
27895;SDS011;15241;48.374;10.876;2022-09-09T05:38:19;6.00;;;2.58;;
27895;SDS011;15241;48.374;10.876;2022-09-09T05:43:17;4.17;;;1.42;;
27895;SDS011;15241;48.374;10.876;2022-09-09T05:48:16;4.00;;;1.70;;
27895;SDS011;15241;48.374;10.876;2022-09-09T05:53:15;8.48;;;2.10;;
27895;SDS011;15241;48.374;10.876;2022-09-09T05:58:14;2.12;;;1.40;;
27895;SDS011;15241;48.374;10.876;2022-09-09T06:03:14;2.85;;;1.27;;
27895;SDS011;15241;48.374;10.876;2022-09-09T06:08:13;4.87;;;1.10;;
27895;SDS011;15241;48.374;10.876;2022-09-09T06:13:11;2.52;;;1.40;;
27895;SDS011;15241;48.374;10.876;2022-09-09T06:18:10;3.05;;;1.42;;
27895;SDS011;15241;48.374;10.876;2022-09-09T06:23:09;4.83;;;1.50;;
27895;SDS011;15241;48.374;10.876;2022-09-09T06:28:08;6.78;;;3.33;;
27895;SDS011;15241;48.374;10.876;2022-09-09T06:33:08;5.25;;;1.62;;
27895;SDS011;15241;48.374;10.876;2022-09-09T06:38:07;4.78;;;1.60;;
27895;SDS011;15241;48.374;10.876;2022-09-09T06:43:06;2.80;;;1.55;;
27895;SDS011;15241;48.374;10.876;2022-09-09T06:48:05;2.12;;;1.52;;
27895;SDS011;15241;48.374;10.876;2022-09-09T06:53:07;2.92;;;1.32;;
27895;SDS011;15241;48.374;10.876;2022-09-09T06:58:08;3.15;;;1.47;;
27895;SDS011;15241;48.374;10.876;2022-09-09T07:03:07;3.67;;;1.60;;
27895;SDS011;15241;48.374;10.876;2022-09-09T07:08:07;9.55;;;2.30;;
27895;SDS011;15241;48.374;10.876;2022-09-09T07:13:06;3.27;;;1.30;;
27895;SDS011;15241;48.374;10.876;2022-09-09T07:18:05;2.30;;;1.30;;
27895;SDS011;15241;48.374;10.876;2022-09-09T07:23:04;4.75;;;1.75;;
27895;SDS011;15241;48.374;10.876;2022-09-09T07:28:03;5.20;;;1.70;;
27895;SDS011;15241;48.374;10.876;2022-09-09T07:33:01;4.87;;;1.50;;
27895;SDS011;15241;48.374;10.876;2022-09-09T07:38:00;2.17;;;1.40;;
27895;SDS011;15241;48.374;10.876;2022-09-09T07:43:00;3.42;;;1.30;;
27895;SDS011;15241;48.374;10.876;2022-09-09T07:47:58;3.67;;;1.30;;
27895;SDS011;15241;48.374;10.876;2022-09-09T07:52:57;4.40;;;1.45;;
27895;SDS011;15241;48.374;10.876;2022-09-09T07:57:56;1.60;;;1.15;;
27895;SDS011;15241;48.374;10.876;2022-09-09T08:02:55;2.90;;;1.30;;
27895;SDS011;15241;48.374;10.876;2022-09-09T08:07:54;2.67;;;1.32;;
27895;SDS011;15241;48.374;10.876;2022-09-09T08:12:53;1.60;;;1.15;;
27895;SDS011;15241;48.374;10.876;2022-09-09T08:17:52;4.55;;;1.35;;
27895;SDS011;15241;48.374;10.876;2022-09-09T08:22:51;2.17;;;1.20;;
27895;SDS011;15241;48.374;10.876;2022-09-09T08:27:50;7.33;;;1.22;;
27895;SDS011;15241;48.374;10.876;2022-09-09T08:32:52;2.92;;;0.85;;
27895;SDS011;15241;48.374;10.876;2022-09-09T08:37:53;2.10;;;1.25;;
27895;SDS011;15241;48.374;10.876;2022-09-09T08:42:52;1.92;;;1.12;;
27895;SDS011;15241;48.374;10.876;2022-09-09T08:48:03;2.77;;;1.20;;
27895;SDS011;15241;48.374;10.876;2022-09-09T08:53:10;4.40;;;1.07;;
27895;SDS011;15241;48.374;10.876;2022-09-09T08:58:13;2.42;;;0.85;;
27895;SDS011;15241;48.374;10.876;2022-09-09T09:03:15;1.32;;;0.80;;
27895;SDS011;15241;48.374;10.876;2022-09-09T09:08:20;3.40;;;1.07;;
27895;SDS011;15241;48.374;10.876;2022-09-09T09:18:19;3.47;;;1.10;;
27895;SDS011;15241;48.374;10.876;2022-09-09T09:23:21;2.10;;;0.78;;
27895;SDS011;15241;48.374;10.876;2022-09-09T09:28:22;1.52;;;0.75;;
27895;SDS011;15241;48.374;10.876;2022-09-09T09:33:23;3.15;;;0.90;;
27895;SDS011;15241;48.374;10.876;2022-09-09T09:38:25;4.80;;;1.00;;
27895;SDS011;15241;48.374;10.876;2022-09-09T09:43:26;3.58;;;0.93;;
27895;SDS011;15241;48.374;10.876;2022-09-09T09:48:27;3.00;;;0.98;;
27895;SDS011;15241;48.374;10.876;2022-09-09T09:53:28;4.47;;;1.10;;
27895;SDS011;15241;48.374;10.876;2022-09-09T09:58:30;6.00;;;1.22;;
27895;SDS011;15241;48.374;10.876;2022-09-09T10:03:31;1.72;;;0.90;;
27895;SDS011;15241;48.374;10.876;2022-09-09T10:08:33;1.70;;;1.10;;
27895;SDS011;15241;48.374;10.876;2022-09-09T10:13:36;0.97;;;0.90;;
27895;SDS011;15241;48.374;10.876;2022-09-09T10:23:52;1.82;;;0.70;;
27895;SDS011;15241;48.374;10.876;2022-09-09T10:29:03;2.27;;;0.82;;
27895;SDS011;15241;48.374;10.876;2022-09-09T10:34:12;1.70;;;0.95;;
27895;SDS011;15241;48.374;10.876;2022-09-09T10:39:28;1.40;;;0.75;;
27895;SDS011;15241;48.374;10.876;2022-09-09T10:44:32;2.10;;;0.93;;
27895;SDS011;15241;48.374;10.876;2022-09-09T10:49:42;3.87;;;1.30;;
27895;SDS011;15241;48.374;10.876;2022-09-09T10:54:53;2.52;;;0.98;;
27895;SDS011;15241;48.374;10.876;2022-09-09T11:04:53;5.83;;;1.00;;
27895;SDS011;15241;48.374;10.876;2022-09-09T11:09:54;2.47;;;1.10;;
27895;SDS011;15241;48.374;10.876;2022-09-09T11:14:59;4.05;;;1.15;;
27895;SDS011;15241;48.374;10.876;2022-09-09T11:20:11;1.72;;;0.93;;
27895;SDS011;15241;48.374;10.876;2022-09-09T11:30:15;2.42;;;0.95;;
27895;SDS011;15241;48.374;10.876;2022-09-09T11:35:23;1.77;;;1.07;;
27895;SDS011;15241;48.374;10.876;2022-09-09T11:40:29;4.08;;;1.32;;
27895;SDS011;15241;48.374;10.876;2022-09-09T11:45:30;1.67;;;0.85;;
27895;SDS011;15241;48.374;10.876;2022-09-09T11:50:31;3.50;;;1.02;;
27895;SDS011;15241;48.374;10.876;2022-09-09T11:55:33;3.87;;;1.20;;
27895;SDS011;15241;48.374;10.876;2022-09-09T12:00:34;2.10;;;0.90;;
27895;SDS011;15241;48.374;10.876;2022-09-09T12:05:38;4.25;;;0.95;;
27895;SDS011;15241;48.374;10.876;2022-09-09T12:10:39;3.98;;;1.15;;
27895;SDS011;15241;48.374;10.876;2022-09-09T12:15:46;2.30;;;0.98;;
27895;SDS011;15241;48.374;10.876;2022-09-09T12:20:51;4.22;;;1.37;;
27895;SDS011;15241;48.374;10.876;2022-09-09T12:31:21;2.60;;;1.10;;
27895;SDS011;15241;48.374;10.876;2022-09-09T12:36:23;4.15;;;1.27;;
27895;SDS011;15241;48.374;10.876;2022-09-09T12:41:25;3.12;;;1.30;;
27895;SDS011;15241;48.374;10.876;2022-09-09T12:46:32;6.08;;;1.80;;
27895;SDS011;15241;48.374;10.876;2022-09-09T12:51:35;2.25;;;1.22;;
27895;SDS011;15241;48.374;10.876;2022-09-09T12:56:34;3.17;;;1.10;;
27895;SDS011;15241;48.374;10.876;2022-09-09T13:01:34;2.85;;;0.93;;
27895;SDS011;15241;48.374;10.876;2022-09-09T13:06:35;3.17;;;1.30;;
27895;SDS011;15241;48.374;10.876;2022-09-09T13:11:35;2.10;;;1.00;;
27895;SDS011;15241;48.374;10.876;2022-09-09T13:16:36;2.67;;;1.33;;
27895;SDS011;15241;48.374;10.876;2022-09-09T13:21:36;4.55;;;1.22;;
27895;SDS011;15241;48.374;10.876;2022-09-09T13:26:37;3.20;;;1.45;;
27895;SDS011;15241;48.374;10.876;2022-09-09T13:31:37;2.00;;;1.00;;
27895;SDS011;15241;48.374;10.876;2022-09-09T13:36:37;1.72;;;0.95;;
27895;SDS011;15241;48.374;10.876;2022-09-09T13:41:36;2.33;;;1.10;;
27895;SDS011;15241;48.374;10.876;2022-09-09T13:46:41;3.52;;;1.27;;
27895;SDS011;15241;48.374;10.876;2022-09-09T13:51:42;2.12;;;1.20;;
27895;SDS011;15241;48.374;10.876;2022-09-09T13:56:43;2.35;;;0.98;;
27895;SDS011;15241;48.374;10.876;2022-09-09T14:01:42;4.65;;;1.12;;
27895;SDS011;15241;48.374;10.876;2022-09-09T14:06:40;4.50;;;1.37;;
27895;SDS011;15241;48.374;10.876;2022-09-09T14:11:40;6.15;;;1.65;;
27895;SDS011;15241;48.374;10.876;2022-09-09T14:16:39;2.80;;;1.20;;
27895;SDS011;15241;48.374;10.876;2022-09-09T14:21:39;2.15;;;0.90;;
27895;SDS011;15241;48.374;10.876;2022-09-09T14:26:38;5.58;;;1.35;;
27895;SDS011;15241;48.374;10.876;2022-09-09T14:31:37;2.17;;;0.80;;
27895;SDS011;15241;48.374;10.876;2022-09-09T14:36:36;0.70;;;0.70;;
27895;SDS011;15241;48.374;10.876;2022-09-09T14:41:35;2.15;;;1.20;;
27895;SDS011;15241;48.374;10.876;2022-09-09T14:46:34;3.20;;;0.98;;
27895;SDS011;15241;48.374;10.876;2022-09-09T14:51:33;1.60;;;0.95;;
27895;SDS011;15241;48.374;10.876;2022-09-09T14:56:32;3.22;;;1.10;;
27895;SDS011;15241;48.374;10.876;2022-09-09T15:01:31;3.27;;;1.10;;
27895;SDS011;15241;48.374;10.876;2022-09-09T15:06:31;2.87;;;1.32;;
27895;SDS011;15241;48.374;10.876;2022-09-09T15:11:33;2.12;;;1.45;;
27895;SDS011;15241;48.374;10.876;2022-09-09T15:16:33;2.58;;;1.00;;
27895;SDS011;15241;48.374;10.876;2022-09-09T15:21:33;2.45;;;0.78;;
27895;SDS011;15241;48.374;10.876;2022-09-09T15:26:34;3.67;;;1.00;;
27895;SDS011;15241;48.374;10.876;2022-09-09T15:31:33;2.20;;;1.10;;
27895;SDS011;15241;48.374;10.876;2022-09-09T15:36:33;1.85;;;1.10;;
27895;SDS011;15241;48.374;10.876;2022-09-09T15:41:34;2.30;;;1.00;;
27895;SDS011;15241;48.374;10.876;2022-09-09T15:46:33;2.87;;;1.30;;
27895;SDS011;15241;48.374;10.876;2022-09-09T15:51:33;1.60;;;0.82;;
27895;SDS011;15241;48.374;10.876;2022-09-09T15:56:32;2.45;;;1.20;;
27895;SDS011;15241;48.374;10.876;2022-09-09T16:01:31;2.40;;;0.93;;
27895;SDS011;15241;48.374;10.876;2022-09-09T16:06:30;2.62;;;1.02;;
27895;SDS011;15241;48.374;10.876;2022-09-09T16:11:30;2.55;;;0.90;;
27895;SDS011;15241;48.374;10.876;2022-09-09T16:16:30;3.33;;;1.60;;
27895;SDS011;15241;48.374;10.876;2022-09-09T16:21:30;1.67;;;1.10;;
27895;SDS011;15241;48.374;10.876;2022-09-09T16:26:31;2.83;;;1.25;;
27895;SDS011;15241;48.374;10.876;2022-09-09T16:31:31;1.67;;;0.75;;
27895;SDS011;15241;48.374;10.876;2022-09-09T16:36:31;2.70;;;1.27;;
27895;SDS011;15241;48.374;10.876;2022-09-09T16:41:31;3.33;;;1.02;;
27895;SDS011;15241;48.374;10.876;2022-09-09T16:46:31;2.35;;;1.05;;
27895;SDS011;15241;48.374;10.876;2022-09-09T16:51:32;2.27;;;1.05;;
27895;SDS011;15241;48.374;10.876;2022-09-09T16:56:32;1.62;;;1.00;;
27895;SDS011;15241;48.374;10.876;2022-09-09T17:01:33;2.72;;;1.20;;
27895;SDS011;15241;48.374;10.876;2022-09-09T17:06:33;2.95;;;1.50;;
27895;SDS011;15241;48.374;10.876;2022-09-09T17:11:33;2.95;;;1.25;;
27895;SDS011;15241;48.374;10.876;2022-09-09T17:16:33;3.58;;;1.50;;
27895;SDS011;15241;48.374;10.876;2022-09-09T17:21:32;4.25;;;1.92;;
27895;SDS011;15241;48.374;10.876;2022-09-09T17:26:32;1.57;;;1.20;;
27895;SDS011;15241;48.374;10.876;2022-09-09T17:31:30;2.35;;;1.25;;
27895;SDS011;15241;48.374;10.876;2022-09-09T17:36:31;1.77;;;1.17;;
27895;SDS011;15241;48.374;10.876;2022-09-09T17:41:31;4.65;;;1.20;;
27895;SDS011;15241;48.374;10.876;2022-09-09T17:46:32;3.08;;;1.10;;
27895;SDS011;15241;48.374;10.876;2022-09-09T17:51:32;2.92;;;1.37;;
27895;SDS011;15241;48.374;10.876;2022-09-09T17:56:32;3.65;;;1.52;;
27895;SDS011;15241;48.374;10.876;2022-09-09T18:01:31;2.72;;;1.62;;
27895;SDS011;15241;48.374;10.876;2022-09-09T18:06:32;7.65;;;1.15;;
27895;SDS011;15241;48.374;10.876;2022-09-09T18:11:33;4.03;;;1.62;;
27895;SDS011;15241;48.374;10.876;2022-09-09T18:16:34;5.90;;;1.30;;
27895;SDS011;15241;48.374;10.876;2022-09-09T18:21:33;1.80;;;0.68;;
27895;SDS011;15241;48.374;10.876;2022-09-09T18:26:32;1.52;;;0.68;;
27895;SDS011;15241;48.374;10.876;2022-09-09T18:31:32;1.00;;;0.85;;
27895;SDS011;15241;48.374;10.876;2022-09-09T18:36:32;2.60;;;0.93;;
27895;SDS011;15241;48.374;10.876;2022-09-09T18:41:34;2.33;;;1.00;;
27895;SDS011;15241;48.374;10.876;2022-09-09T18:46:35;2.12;;;1.05;;
27895;SDS011;15241;48.374;10.876;2022-09-09T18:51:34;2.92;;;1.50;;
27895;SDS011;15241;48.374;10.876;2022-09-09T18:56:34;2.77;;;1.50;;
27895;SDS011;15241;48.374;10.876;2022-09-09T19:01:34;2.65;;;1.45;;
27895;SDS011;15241;48.374;10.876;2022-09-09T19:06:35;5.47;;;1.60;;
27895;SDS011;15241;48.374;10.876;2022-09-09T19:11:34;2.60;;;1.70;;
27895;SDS011;15241;48.374;10.876;2022-09-09T19:16:34;3.92;;;2.40;;
27895;SDS011;15241;48.374;10.876;2022-09-09T19:21:34;4.08;;;1.60;;
27895;SDS011;15241;48.374;10.876;2022-09-09T19:26:35;2.52;;;1.50;;
27895;SDS011;15241;48.374;10.876;2022-09-09T19:31:35;1.90;;;1.20;;
27895;SDS011;15241;48.374;10.876;2022-09-09T19:36:35;2.25;;;1.25;;
27895;SDS011;15241;48.374;10.876;2022-09-09T19:41:34;3.33;;;1.20;;
27895;SDS011;15241;48.374;10.876;2022-09-09T19:46:35;2.90;;;1.35;;
27895;SDS011;15241;48.374;10.876;2022-09-09T19:51:34;3.70;;;1.12;;
27895;SDS011;15241;48.374;10.876;2022-09-09T19:56:34;2.50;;;1.00;;
27895;SDS011;15241;48.374;10.876;2022-09-09T20:01:35;1.10;;;0.95;;
27895;SDS011;15241;48.374;10.876;2022-09-09T20:06:37;1.98;;;1.20;;
27895;SDS011;15241;48.374;10.876;2022-09-09T20:11:37;3.83;;;1.07;;
27895;SDS011;15241;48.374;10.876;2022-09-09T20:16:36;2.15;;;1.10;;
27895;SDS011;15241;48.374;10.876;2022-09-09T20:21:36;3.58;;;1.10;;
27895;SDS011;15241;48.374;10.876;2022-09-09T20:26:37;3.05;;;1.20;;
27895;SDS011;15241;48.374;10.876;2022-09-09T20:31:37;3.60;;;1.07;;
27895;SDS011;15241;48.374;10.876;2022-09-09T20:36:37;2.58;;;1.10;;
27895;SDS011;15241;48.374;10.876;2022-09-09T20:41:37;1.30;;;1.07;;
27895;SDS011;15241;48.374;10.876;2022-09-09T20:46:37;3.70;;;1.22;;
27895;SDS011;15241;48.374;10.876;2022-09-09T20:51:37;2.15;;;1.40;;
27895;SDS011;15241;48.374;10.876;2022-09-09T20:56:37;2.55;;;1.42;;
27895;SDS011;15241;48.374;10.876;2022-09-09T21:01:37;2.35;;;1.22;;
27895;SDS011;15241;48.374;10.876;2022-09-09T21:06:37;3.62;;;1.30;;
27895;SDS011;15241;48.374;10.876;2022-09-09T21:11:36;2.95;;;1.50;;
27895;SDS011;15241;48.374;10.876;2022-09-09T21:16:35;2.20;;;1.10;;
27895;SDS011;15241;48.374;10.876;2022-09-09T21:21:34;2.15;;;1.10;;
27895;SDS011;15241;48.374;10.876;2022-09-09T21:26:32;4.62;;;1.60;;
27895;SDS011;15241;48.374;10.876;2022-09-09T21:31:31;2.85;;;1.00;;
27895;SDS011;15241;48.374;10.876;2022-09-09T21:36:30;2.00;;;1.02;;
27895;SDS011;15241;48.374;10.876;2022-09-09T21:41:29;2.17;;;1.32;;
27895;SDS011;15241;48.374;10.876;2022-09-09T21:46:28;2.02;;;1.10;;
27895;SDS011;15241;48.374;10.876;2022-09-09T21:51:27;3.35;;;1.05;;
27895;SDS011;15241;48.374;10.876;2022-09-09T21:56:26;3.98;;;1.20;;
27895;SDS011;15241;48.374;10.876;2022-09-09T22:01:25;1.85;;;0.80;;
27895;SDS011;15241;48.374;10.876;2022-09-09T22:06:24;2.17;;;0.93;;
27895;SDS011;15241;48.374;10.876;2022-09-09T22:11:23;3.20;;;0.80;;
27895;SDS011;15241;48.374;10.876;2022-09-09T22:16:22;4.15;;;1.07;;
27895;SDS011;15241;48.374;10.876;2022-09-09T22:21:21;5.17;;;0.98;;
27895;SDS011;15241;48.374;10.876;2022-09-09T22:26:21;4.90;;;1.00;;
27895;SDS011;15241;48.374;10.876;2022-09-09T22:31:20;1.55;;;1.10;;
27895;SDS011;15241;48.374;10.876;2022-09-09T22:36:19;2.25;;;0.93;;
27895;SDS011;15241;48.374;10.876;2022-09-09T22:41:19;0.98;;;0.88;;
27895;SDS011;15241;48.374;10.876;2022-09-09T22:46:18;2.42;;;0.70;;
27895;SDS011;15241;48.374;10.876;2022-09-09T22:51:17;3.72;;;1.25;;
27895;SDS011;15241;48.374;10.876;2022-09-09T22:56:16;2.25;;;1.10;;
27895;SDS011;15241;48.374;10.876;2022-09-09T23:01:17;2.17;;;1.02;;
27895;SDS011;15241;48.374;10.876;2022-09-09T23:06:17;2.05;;;1.02;;
27895;SDS011;15241;48.374;10.876;2022-09-09T23:11:17;1.95;;;1.00;;
27895;SDS011;15241;48.374;10.876;2022-09-09T23:16:17;3.72;;;1.12;;
27895;SDS011;15241;48.374;10.876;2022-09-09T23:21:18;4.05;;;1.20;;
27895;SDS011;15241;48.374;10.876;2022-09-09T23:26:26;1.10;;;1.00;;
27895;SDS011;15241;48.374;10.876;2022-09-09T23:31:25;2.15;;;1.20;;
27895;SDS011;15241;48.374;10.876;2022-09-09T23:36:26;2.72;;;1.07;;
27895;SDS011;15241;48.374;10.876;2022-09-09T23:41:26;2.17;;;1.00;;
27895;SDS011;15241;48.374;10.876;2022-09-09T23:46:26;1.05;;;0.95;;
27895;SDS011;15241;48.374;10.876;2022-09-09T23:51:27;2.10;;;1.00;;
27895;SDS011;15241;48.374;10.876;2022-09-09T23:56:28;1.37;;;0.90;;
